createdAt,value
2022-12-15T00:03:50.161Z,79.69
2022-12-15T00:09:31.359Z,79.72
2022-12-15T00:15:11.964Z,79.31
2022-12-15T00:20:53.664Z,79.21
2022-12-15T00:26:35.423Z,79.04
2022-12-15T00:32:16.552Z,79.21
2022-12-15T00:37:57.099Z,79.23
2022-12-15T00:43:20.866Z,79.11
2022-12-15T00:48:44.705Z,79.12
2022-12-15T00:54:26.964Z,79.05
2022-12-15T01:00:08.466Z,79.18
2022-12-15T01:05:49.540Z,79.12
2022-12-15T01:11:30.257Z,79.07
2022-12-15T01:17:11.226Z,78.88
2022-12-15T01:22:34.680Z,78.90
2022-12-15T01:27:59.659Z,78.82
2022-12-15T01:33:24.422Z,79.21
2022-12-15T01:38:53.672Z,79.00
2022-12-15T01:44:24.862Z,79.18
2022-12-15T01:49:49.272Z,79.26
2022-12-15T01:55:13.095Z,79.40
2022-12-15T02:00:37.489Z,79.55
2022-12-15T02:06:02.381Z,79.33
2022-12-15T02:11:26.135Z,79.34
2022-12-15T02:17:04.016Z,79.42
2022-12-15T02:22:28.120Z,79.45
2022-12-15T02:27:51.741Z,79.54
2022-12-15T02:33:17.374Z,79.58
2022-12-15T02:38:42.907Z,79.80
2022-12-15T02:44:10.187Z,79.59
2022-12-15T02:50:03.330Z,79.92
2022-12-15T02:55:33.061Z,79.85
2022-12-15T03:01:00.023Z,79.83
2022-12-15T03:06:24.296Z,79.91
2022-12-15T03:11:48.751Z,79.90
2022-12-15T03:17:12.239Z,80.06
2022-12-15T03:22:36.475Z,79.92
2022-12-15T03:28:00.172Z,79.93
2022-12-15T03:33:23.925Z,80.16
2022-12-15T03:38:48.412Z,79.86
2022-12-15T03:44:13.004Z,79.85
2022-12-15T03:49:36.616Z,79.81
2022-12-15T03:55:00.442Z,79.97
2022-12-15T04:00:24.830Z,80.03
2022-12-15T04:05:48.820Z,79.86
2022-12-15T04:11:13.229Z,79.85
2022-12-15T04:16:37.751Z,79.94
2022-12-15T04:22:03.824Z,80.09
2022-12-15T04:27:44.578Z,79.72
2022-12-15T04:33:30.601Z,79.69
2022-12-15T04:39:11.785Z,79.80
2022-12-15T04:44:54.385Z,79.90
2022-12-15T04:50:35.298Z,79.70
2022-12-15T04:56:18.708Z,79.85
2022-12-15T05:01:59.816Z,79.47
2022-12-15T05:07:40.740Z,79.53
2022-12-15T05:13:25.232Z,79.37
2022-12-15T05:19:07.314Z,79.09
2022-12-15T05:24:49.368Z,78.76
2022-12-15T05:30:30.373Z,78.74
2022-12-15T05:35:54.372Z,78.45
2022-12-15T05:41:18.827Z,79.03
2022-12-15T05:46:42.709Z,78.96
2022-12-15T05:52:07.945Z,78.96
2022-12-15T05:57:33.191Z,79.15
2022-12-15T06:02:56.923Z,79.04
2022-12-15T06:08:20.549Z,79.14
2022-12-15T06:13:44.640Z,78.87
2022-12-15T06:19:09.156Z,78.80
2022-12-15T06:24:33.102Z,78.81
2022-12-15T06:29:58.538Z,79.05
2022-12-15T06:35:22.843Z,79.21
2022-12-15T06:40:46.503Z,78.96
2022-12-15T06:46:10.568Z,79.03
2022-12-15T06:51:34.443Z,78.88
2022-12-15T06:56:58.563Z,78.91
2022-12-15T07:02:28.678Z,78.55
2022-12-15T07:07:54.385Z,78.45
2022-12-15T07:13:19.860Z,77.96
2022-12-15T07:18:43.645Z,77.94
2022-12-15T07:24:08.365Z,77.67
2022-12-15T07:29:33.437Z,77.47
2022-12-15T07:34:57.974Z,77.47
2022-12-15T07:40:21.697Z,77.46
2022-12-15T07:45:51.180Z,77.60
2022-12-15T07:51:19.395Z,77.38
2022-12-15T07:56:44.129Z,77.05
2022-12-15T08:02:15.160Z,76.90
2022-12-15T08:07:39.718Z,76.79
2022-12-15T08:13:03.405Z,76.49
2022-12-15T08:18:27.269Z,76.30
2022-12-15T08:23:51.157Z,76.24
2022-12-15T08:29:49.510Z,76.24
2022-12-15T08:34:59.790Z,76.05
2022-12-15T08:40:25.596Z,75.56
2022-12-15T08:45:49.491Z,75.62
2022-12-15T08:51:14.451Z,75.43
2022-12-15T08:56:38.472Z,75.49
2022-12-15T09:02:02.473Z,75.26
2022-12-15T09:07:26.519Z,75.17
2022-12-15T09:12:51.446Z,75.22
2022-12-15T09:18:16.613Z,75.33
2022-12-15T09:23:40.386Z,75.29
2022-12-15T09:29:04.152Z,75.15
2022-12-15T09:34:28.744Z,75.39
2022-12-15T09:39:52.700Z,74.93
2022-12-15T09:45:21.659Z,74.63
2022-12-15T09:50:45.491Z,74.41
2022-12-15T09:56:09.852Z,74.01
2022-12-15T10:01:36.734Z,73.93
2022-12-15T10:07:22.135Z,73.72
2022-12-15T10:18:56.095Z,72.88
2022-12-15T10:25:00.353Z,72.73
2022-12-15T10:30:09.734Z,72.44
2022-12-15T10:35:34.512Z,71.63
2022-12-15T10:40:58.857Z,71.21
2022-12-15T10:46:25.293Z,70.05
2022-12-15T10:51:54.421Z,70.71
2022-12-15T10:57:21.109Z,69.78
2022-12-15T11:02:44.885Z,69.09
2022-12-15T11:08:16.647Z,69.05
2022-12-15T11:13:40.513Z,68.82
2022-12-15T11:19:07.027Z,69.23
2022-12-15T11:24:41.468Z,68.80
2022-12-15T11:30:14.568Z,68.99
2022-12-15T11:36:07.963Z,68.75
2022-12-15T11:41:50.795Z,68.34
2022-12-15T11:47:40.062Z,68.22
2022-12-15T11:53:18.267Z,68.12
2022-12-15T11:58:53.821Z,67.95
2022-12-15T12:04:25.637Z,67.47
2022-12-15T12:09:55.711Z,67.30
2022-12-15T12:15:28.096Z,66.38
2022-12-15T12:20:53.281Z,66.69
2022-12-15T12:26:37.541Z,66.18
2022-12-15T12:32:07.639Z,66.02
2022-12-15T12:37:39.156Z,65.99
2022-12-15T12:43:02.724Z,65.92
2022-12-15T12:48:28.407Z,65.83
2022-12-15T12:53:52.193Z,65.59
2022-12-15T12:59:31.951Z,65.89
2022-12-15T13:05:00.329Z,66.47
2022-12-15T13:10:26.842Z,66.72
2022-12-15T13:15:51.565Z,66.85
2022-12-15T13:21:38.164Z,67.20
2022-12-15T13:27:20.252Z,67.85
2022-12-15T13:32:46.004Z,67.74
2022-12-15T13:38:18.461Z,67.45
2022-12-15T13:43:43.644Z,67.45
2022-12-15T13:49:14.168Z,67.83
2022-12-15T13:54:40.398Z,68.29
2022-12-15T14:00:05.478Z,68.69
2022-12-15T14:05:36.018Z,68.95
2022-12-15T14:11:06.943Z,68.80
2022-12-15T14:16:40.122Z,68.73
2022-12-15T14:22:03.796Z,68.36
2022-12-15T14:27:28.438Z,68.37
2022-12-15T14:32:53.630Z,67.83
2022-12-15T14:38:25.969Z,68.05
2022-12-15T14:44:32.022Z,67.72
2022-12-15T14:49:38.476Z,68.24
2022-12-15T14:55:25.577Z,68.10
2022-12-15T15:00:52.993Z,68.65
2022-12-15T15:03:10.852Z,73.09
2022-12-15T15:06:18.353Z,68.75
2022-12-15T15:11:42.675Z,68.59
2022-12-15T15:17:07.807Z,68.69
2022-12-15T15:22:36.643Z,68.79
2022-12-15T15:28:18.729Z,68.58
2022-12-15T15:33:42.057Z,69.10
2022-12-15T15:39:06.906Z,68.78
2022-12-15T15:44:30.909Z,68.79
2022-12-15T15:49:55.622Z,68.67
2022-12-15T15:55:21.138Z,68.79
2022-12-15T16:00:44.776Z,68.71
2022-12-15T16:06:11.100Z,68.65
2022-12-15T16:11:35.571Z,68.73
2022-12-15T16:17:00.436Z,68.70
2022-12-15T16:22:24.961Z,68.76
2022-12-15T16:27:48.979Z,68.98
2022-12-15T16:33:13.106Z,69.07
2022-12-15T16:38:38.391Z,68.99
2022-12-15T16:44:03.069Z,69.15
2022-12-15T16:49:28.769Z,69.06
2022-12-15T16:54:53.159Z,68.86
2022-12-15T17:00:24.099Z,68.78
2022-12-15T17:05:49.729Z,68.69
2022-12-15T17:11:23.104Z,68.65
2022-12-15T17:16:47.041Z,68.72
2022-12-15T17:22:14.801Z,68.58
2022-12-15T17:27:39.455Z,68.25
2022-12-15T17:33:03.059Z,67.87
2022-12-15T17:38:26.892Z,67.73
2022-12-15T17:44:09.748Z,68.00
2022-12-15T17:49:37.211Z,69.36
2022-12-15T17:55:01.646Z,68.92
2022-12-15T18:00:28.094Z,68.46
2022-12-15T18:05:52.673Z,68.54
2022-12-15T18:11:17.114Z,68.48
2022-12-15T18:16:40.827Z,68.50
2022-12-15T18:22:04.897Z,68.41
2022-12-15T18:27:29.711Z,68.52
2022-12-15T18:32:56.470Z,68.50
2022-12-15T18:38:24.278Z,68.24
2022-12-15T18:43:47.860Z,68.00
2022-12-15T18:49:14.570Z,68.38
2022-12-15T18:54:38.961Z,68.39
2022-12-15T19:00:15.319Z,68.45
2022-12-15T19:05:40.347Z,68.19
2022-12-15T19:11:13.703Z,67.94
2022-12-15T19:16:51.144Z,67.91
2022-12-15T19:22:30.888Z,67.81
2022-12-15T19:27:59.307Z,68.09
2022-12-15T19:33:24.050Z,68.34
2022-12-15T19:38:48.317Z,68.20
2022-12-15T19:44:15.781Z,68.39
2022-12-15T19:49:39.676Z,68.64
2022-12-15T19:55:03.510Z,68.87
2022-12-15T20:00:27.608Z,69.04
2022-12-15T20:05:52.308Z,69.10
2022-12-15T20:11:21.253Z,69.05
2022-12-15T20:16:45.456Z,69.27
2022-12-15T20:22:12.634Z,69.96
2022-12-15T20:27:36.638Z,69.93
2022-12-15T20:33:03.412Z,70.12
2022-12-15T20:38:35.057Z,69.98
2022-12-15T20:43:59.845Z,69.97
2022-12-15T20:49:23.940Z,70.18
2022-12-15T20:54:47.742Z,69.95
2022-12-15T21:00:13.412Z,70.14
2022-12-15T21:05:37.016Z,70.24
2022-12-15T21:11:20.483Z,70.47
2022-12-15T21:16:45.307Z,70.68
2022-12-15T21:22:10.586Z,70.78
2022-12-15T21:27:34.099Z,70.69
2022-12-15T21:32:57.918Z,71.01
2022-12-15T21:38:32.835Z,71.08
2022-12-15T21:43:57.384Z,71.22
2022-12-15T21:49:22.123Z,71.16
2022-12-15T21:54:45.897Z,71.47
2022-12-15T22:00:13.753Z,71.28
2022-12-15T22:05:37.291Z,71.45
2022-12-15T22:11:01.001Z,71.61
2022-12-15T22:16:26.344Z,71.87
2022-12-15T22:21:51.133Z,72.33
2022-12-15T22:27:23.486Z,72.49
2022-12-15T22:32:47.499Z,72.84
2022-12-15T22:38:11.146Z,73.59
2022-12-15T22:43:44.319Z,74.45
2022-12-15T22:49:10.096Z,75.03
2022-12-15T22:54:34.515Z,75.31
2022-12-15T23:00:04.369Z,75.68
2022-12-15T23:05:27.947Z,75.70
2022-12-15T23:11:08.947Z,75.94
2022-12-15T23:16:32.599Z,75.76
2022-12-15T23:21:56.889Z,75.71
2022-12-15T23:27:21.583Z,75.76
2022-12-15T23:32:45.370Z,75.76
2022-12-15T23:38:09.373Z,75.58
2022-12-15T23:43:33.678Z,75.60
2022-12-15T23:48:57.559Z,75.68
2022-12-15T23:54:22.119Z,75.86
2022-12-15T23:59:46.541Z,76.27
